sensor_id;sensor_type;location;lat;lon;timestamp;temperature;humidity
23377;DHT22;14353;46.070;13.222;2022-07-23T00:01:34;35.10;36.10
23377;DHT22;14353;46.070;13.222;2022-07-23T00:04:00;35.00;36.00
23377;DHT22;14353;46.070;13.222;2022-07-23T00:06:26;35.10;36.00
23377;DHT22;14353;46.070;13.222;2022-07-23T00:08:52;35.00;36.10
23377;DHT22;14353;46.070;13.222;2022-07-23T00:11:18;35.10;36.10
23377;DHT22;14353;46.070;13.222;2022-07-23T00:13:45;35.00;36.00
23377;DHT22;14353;46.070;13.222;2022-07-23T00:16:11;35.00;36.10
23377;DHT22;14353;46.070;13.222;2022-07-23T00:18:37;35.10;36.10
23377;DHT22;14353;46.070;13.222;2022-07-23T00:21:02;35.00;36.10
23377;DHT22;14353;46.070;13.222;2022-07-23T00:23:29;35.00;36.10
23377;DHT22;14353;46.070;13.222;2022-07-23T00:25:56;35.00;36.10
23377;DHT22;14353;46.070;13.222;2022-07-23T00:28:22;35.00;36.20
23377;DHT22;14353;46.070;13.222;2022-07-23T00:30:48;34.90;36.10
23377;DHT22;14353;46.070;13.222;2022-07-23T00:33:14;34.90;36.10
23377;DHT22;14353;46.070;13.222;2022-07-23T00:35:41;34.90;36.10
23377;DHT22;14353;46.070;13.222;2022-07-23T00:38:08;34.90;36.10
23377;DHT22;14353;46.070;13.222;2022-07-23T00:40:38;35.00;36.20
23377;DHT22;14353;46.070;13.222;2022-07-23T00:43:04;35.00;36.20
23377;DHT22;14353;46.070;13.222;2022-07-23T00:45:30;35.00;36.20
23377;DHT22;14353;46.070;13.222;2022-07-23T00:47:56;35.00;36.30
23377;DHT22;14353;46.070;13.222;2022-07-23T00:50:22;35.00;36.30
23377;DHT22;14353;46.070;13.222;2022-07-23T00:52:48;34.90;36.20
23377;DHT22;14353;46.070;13.222;2022-07-23T00:55:14;34.90;36.20
23377;DHT22;14353;46.070;13.222;2022-07-23T00:57:41;34.90;36.30
23377;DHT22;14353;46.070;13.222;2022-07-23T01:00:09;34.90;36.30
23377;DHT22;14353;46.070;13.222;2022-07-23T01:02:36;34.90;36.40
23377;DHT22;14353;46.070;13.222;2022-07-23T01:05:02;34.90;36.30
23377;DHT22;14353;46.070;13.222;2022-07-23T01:07:29;34.90;36.30
23377;DHT22;14353;46.070;13.222;2022-07-23T01:09:55;34.90;36.30
23377;DHT22;14353;46.070;13.222;2022-07-23T01:12:21;34.90;36.30
23377;DHT22;14353;46.070;13.222;2022-07-23T01:14:58;34.90;36.40
23377;DHT22;14353;46.070;13.222;2022-07-23T01:17:24;34.90;36.40
23377;DHT22;14353;46.070;13.222;2022-07-23T01:19:50;34.90;36.40
23377;DHT22;14353;46.070;13.222;2022-07-23T01:22:18;34.80;36.40
23377;DHT22;14353;46.070;13.222;2022-07-23T01:24:44;34.80;36.40
23377;DHT22;14353;46.070;13.222;2022-07-23T01:27:10;34.80;36.40
23377;DHT22;14353;46.070;13.222;2022-07-23T01:29:38;34.80;36.40
23377;DHT22;14353;46.070;13.222;2022-07-23T01:32:04;34.80;36.40
23377;DHT22;14353;46.070;13.222;2022-07-23T01:34:30;34.80;36.40
23377;DHT22;14353;46.070;13.222;2022-07-23T01:36:56;34.80;36.40
23377;DHT22;14353;46.070;13.222;2022-07-23T01:39:22;34.80;36.40
23377;DHT22;14353;46.070;13.222;2022-07-23T01:41:47;34.80;36.40
23377;DHT22;14353;46.070;13.222;2022-07-23T01:44:13;34.80;36.40
23377;DHT22;14353;46.070;13.222;2022-07-23T01:46:42;34.80;36.50
23377;DHT22;14353;46.070;13.222;2022-07-23T01:49:11;34.80;36.50
23377;DHT22;14353;46.070;13.222;2022-07-23T01:51:37;34.80;36.50
23377;DHT22;14353;46.070;13.222;2022-07-23T01:54:22;34.70;36.40
23377;DHT22;14353;46.070;13.222;2022-07-23T01:56:48;34.70;36.40
23377;DHT22;14353;46.070;13.222;2022-07-23T01:59:14;34.80;36.50
23377;DHT22;14353;46.070;13.222;2022-07-23T02:01:40;34.80;37.20
23377;DHT22;14353;46.070;13.222;2022-07-23T02:04:06;34.80;36.50
23377;DHT22;14353;46.070;13.222;2022-07-23T02:06:31;34.70;36.50
23377;DHT22;14353;46.070;13.222;2022-07-23T02:08:57;34.80;36.60
23377;DHT22;14353;46.070;13.222;2022-07-23T02:11:23;34.70;36.50
23377;DHT22;14353;46.070;13.222;2022-07-23T02:13:49;34.70;36.50
23377;DHT22;14353;46.070;13.222;2022-07-23T02:16:15;34.70;36.50
23377;DHT22;14353;46.070;13.222;2022-07-23T02:18:41;34.70;36.60
23377;DHT22;14353;46.070;13.222;2022-07-23T02:21:06;34.70;36.60
23377;DHT22;14353;46.070;13.222;2022-07-23T02:23:32;34.70;36.60
23377;DHT22;14353;46.070;13.222;2022-07-23T02:25:58;34.70;36.60
23377;DHT22;14353;46.070;13.222;2022-07-23T02:28:24;34.60;36.50
23377;DHT22;14353;46.070;13.222;2022-07-23T02:30:50;34.70;36.60
23377;DHT22;14353;46.070;13.222;2022-07-23T02:33:16;34.60;36.60
23377;DHT22;14353;46.070;13.222;2022-07-23T02:35:42;34.70;36.60
23377;DHT22;14353;46.070;13.222;2022-07-23T02:38:08;34.60;36.60
23377;DHT22;14353;46.070;13.222;2022-07-23T02:40:33;34.60;36.60
23377;DHT22;14353;46.070;13.222;2022-07-23T02:42:59;34.60;36.60
23377;DHT22;14353;46.070;13.222;2022-07-23T02:45:25;34.60;36.60
23377;DHT22;14353;46.070;13.222;2022-07-23T02:47:51;34.60;36.70
23377;DHT22;14353;46.070;13.222;2022-07-23T02:50:17;34.60;36.60
23377;DHT22;14353;46.070;13.222;2022-07-23T02:52:42;34.60;36.60
23377;DHT22;14353;46.070;13.222;2022-07-23T02:55:08;34.60;36.70
23377;DHT22;14353;46.070;13.222;2022-07-23T02:57:34;34.60;36.70
23377;DHT22;14353;46.070;13.222;2022-07-23T03:00:00;34.60;36.70
23377;DHT22;14353;46.070;13.222;2022-07-23T03:02:26;34.60;36.70
23377;DHT22;14353;46.070;13.222;2022-07-23T03:04:52;34.60;36.70
23377;DHT22;14353;46.070;13.222;2022-07-23T03:07:18;34.60;36.70
23377;DHT22;14353;46.070;13.222;2022-07-23T03:09:44;34.60;36.70
23377;DHT22;14353;46.070;13.222;2022-07-23T03:12:09;34.60;36.70
23377;DHT22;14353;46.070;13.222;2022-07-23T03:14:35;34.60;36.80
23377;DHT22;14353;46.070;13.222;2022-07-23T03:17:01;34.60;36.80
23377;DHT22;14353;46.070;13.222;2022-07-23T03:19:27;34.60;36.80
23377;DHT22;14353;46.070;13.222;2022-07-23T03:21:53;34.60;36.80
23377;DHT22;14353;46.070;13.222;2022-07-23T03:24:18;34.50;36.70
23377;DHT22;14353;46.070;13.222;2022-07-23T03:26:44;34.60;36.80
23377;DHT22;14353;46.070;13.222;2022-07-23T03:29:10;34.50;36.80
23377;DHT22;14353;46.070;13.222;2022-07-23T03:31:36;34.50;36.70
23377;DHT22;14353;46.070;13.222;2022-07-23T03:34:02;34.50;36.80
23377;DHT22;14353;46.070;13.222;2022-07-23T03:36:28;34.50;36.80
23377;DHT22;14353;46.070;13.222;2022-07-23T03:38:54;34.50;36.80
23377;DHT22;14353;46.070;13.222;2022-07-23T03:41:20;34.50;36.80
23377;DHT22;14353;46.070;13.222;2022-07-23T03:43:46;34.50;36.80
23377;DHT22;14353;46.070;13.222;2022-07-23T03:46:12;34.50;36.80
23377;DHT22;14353;46.070;13.222;2022-07-23T03:48:38;34.50;36.80
23377;DHT22;14353;46.070;13.222;2022-07-23T03:51:04;34.50;36.80
23377;DHT22;14353;46.070;13.222;2022-07-23T03:53:30;34.50;36.80
23377;DHT22;14353;46.070;13.222;2022-07-23T03:55:56;34.50;36.80
23377;DHT22;14353;46.070;13.222;2022-07-23T03:58:22;34.50;36.80
23377;DHT22;14353;46.070;13.222;2022-07-23T04:00:48;34.50;37.50
23377;DHT22;14353;46.070;13.222;2022-07-23T04:03:14;34.50;36.80
23377;DHT22;14353;46.070;13.222;2022-07-23T04:05:39;34.50;36.90
23377;DHT22;14353;46.070;13.222;2022-07-23T04:08:05;34.50;36.80
23377;DHT22;14353;46.070;13.222;2022-07-23T04:10:31;34.50;36.80
23377;DHT22;14353;46.070;13.222;2022-07-23T04:12:57;34.50;36.80
23377;DHT22;14353;46.070;13.222;2022-07-23T04:15:23;34.50;36.80
23377;DHT22;14353;46.070;13.222;2022-07-23T04:17:49;34.50;36.80
23377;DHT22;14353;46.070;13.222;2022-07-23T04:20:15;34.50;36.80
23377;DHT22;14353;46.070;13.222;2022-07-23T04:22:41;34.50;36.80
23377;DHT22;14353;46.070;13.222;2022-07-23T04:25:07;34.50;36.80
23377;DHT22;14353;46.070;13.222;2022-07-23T04:27:33;34.50;36.80
23377;DHT22;14353;46.070;13.222;2022-07-23T04:29:59;34.50;36.80
23377;DHT22;14353;46.070;13.222;2022-07-23T04:32:24;34.50;36.80
23377;DHT22;14353;46.070;13.222;2022-07-23T04:34:50;34.50;36.80
23377;DHT22;14353;46.070;13.222;2022-07-23T04:37:16;34.50;36.70
23377;DHT22;14353;46.070;13.222;2022-07-23T04:39:42;34.50;36.70
23377;DHT22;14353;46.070;13.222;2022-07-23T04:42:08;34.50;36.70
23377;DHT22;14353;46.070;13.222;2022-07-23T04:44:34;34.50;36.70
23377;DHT22;14353;46.070;13.222;2022-07-23T04:47:00;34.50;36.70
23377;DHT22;14353;46.070;13.222;2022-07-23T04:49:26;34.50;36.60
23377;DHT22;14353;46.070;13.222;2022-07-23T04:51:52;34.50;36.60
23377;DHT22;14353;46.070;13.222;2022-07-23T04:54:18;34.50;36.70
23377;DHT22;14353;46.070;13.222;2022-07-23T04:56:47;34.50;36.60
23377;DHT22;14353;46.070;13.222;2022-07-23T04:59:13;34.50;36.60
23377;DHT22;14353;46.070;13.222;2022-07-23T05:01:39;34.50;36.60
23377;DHT22;14353;46.070;13.222;2022-07-23T05:04:04;34.60;36.60
23377;DHT22;14353;46.070;13.222;2022-07-23T05:06:30;34.60;36.60
23377;DHT22;14353;46.070;13.222;2022-07-23T05:08:56;34.60;36.60
23377;DHT22;14353;46.070;13.222;2022-07-23T05:11:22;34.60;36.60
23377;DHT22;14353;46.070;13.222;2022-07-23T05:13:48;34.60;36.60
23377;DHT22;14353;46.070;13.222;2022-07-23T05:16:14;34.60;36.50
23377;DHT22;14353;46.070;13.222;2022-07-23T05:18:40;34.60;36.50
23377;DHT22;14353;46.070;13.222;2022-07-23T05:21:05;34.60;36.50
23377;DHT22;14353;46.070;13.222;2022-07-23T05:23:31;34.60;36.40
23377;DHT22;14353;46.070;13.222;2022-07-23T05:25:57;34.60;36.40
23377;DHT22;14353;46.070;13.222;2022-07-23T05:28:23;34.60;36.40
23377;DHT22;14353;46.070;13.222;2022-07-23T05:30:49;34.60;36.40
23377;DHT22;14353;46.070;13.222;2022-07-23T05:33:15;34.60;36.40
23377;DHT22;14353;46.070;13.222;2022-07-23T05:35:41;34.60;36.40
23377;DHT22;14353;46.070;13.222;2022-07-23T05:38:06;34.60;36.40
23377;DHT22;14353;46.070;13.222;2022-07-23T05:40:32;34.60;36.30
23377;DHT22;14353;46.070;13.222;2022-07-23T05:43:01;34.60;36.30
23377;DHT22;14353;46.070;13.222;2022-07-23T05:45:27;34.60;36.30
23377;DHT22;14353;46.070;13.222;2022-07-23T05:47:53;34.60;36.30
23377;DHT22;14353;46.070;13.222;2022-07-23T05:50:19;34.70;36.30
23377;DHT22;14353;46.070;13.222;2022-07-23T05:52:44;34.70;36.30
23377;DHT22;14353;46.070;13.222;2022-07-23T05:55:11;34.70;36.30
23377;DHT22;14353;46.070;13.222;2022-07-23T05:57:38;34.70;36.30
23377;DHT22;14353;46.070;13.222;2022-07-23T06:00:05;34.70;36.30
23377;DHT22;14353;46.070;13.222;2022-07-23T06:02:31;34.70;36.30
23377;DHT22;14353;46.070;13.222;2022-07-23T06:04:57;34.70;36.30
23377;DHT22;14353;46.070;13.222;2022-07-23T06:07:23;34.70;36.20
23377;DHT22;14353;46.070;13.222;2022-07-23T06:09:49;34.70;36.20
23377;DHT22;14353;46.070;13.222;2022-07-23T06:12:16;34.70;36.20
23377;DHT22;14353;46.070;13.222;2022-07-23T06:14:42;34.70;36.20
23377;DHT22;14353;46.070;13.222;2022-07-23T06:17:11;34.70;36.20
23377;DHT22;14353;46.070;13.222;2022-07-23T06:19:37;34.80;36.20
23377;DHT22;14353;46.070;13.222;2022-07-23T06:22:03;34.80;36.10
23377;DHT22;14353;46.070;13.222;2022-07-23T06:24:31;34.80;36.10
23377;DHT22;14353;46.070;13.222;2022-07-23T06:26:57;34.80;36.10
23377;DHT22;14353;46.070;13.222;2022-07-23T06:29:23;34.80;36.10
23377;DHT22;14353;46.070;13.222;2022-07-23T06:31:49;34.80;36.00
23377;DHT22;14353;46.070;13.222;2022-07-23T06:34:15;34.80;36.00
23377;DHT22;14353;46.070;13.222;2022-07-23T06:36:41;34.80;35.90
23377;DHT22;14353;46.070;13.222;2022-07-23T06:39:06;34.90;36.00
23377;DHT22;14353;46.070;13.222;2022-07-23T06:41:32;34.90;35.90
23377;DHT22;14353;46.070;13.222;2022-07-23T06:43:58;34.90;35.90
23377;DHT22;14353;46.070;13.222;2022-07-23T06:46:24;34.90;35.90
23377;DHT22;14353;46.070;13.222;2022-07-23T06:48:50;34.90;35.90
23377;DHT22;14353;46.070;13.222;2022-07-23T06:51:16;34.90;35.90
23377;DHT22;14353;46.070;13.222;2022-07-23T06:53:42;34.90;35.80
23377;DHT22;14353;46.070;13.222;2022-07-23T06:56:08;34.90;35.90
23377;DHT22;14353;46.070;13.222;2022-07-23T06:58:34;34.90;35.80
23377;DHT22;14353;46.070;13.222;2022-07-23T07:01:00;34.90;35.90
23377;DHT22;14353;46.070;13.222;2022-07-23T07:03:25;34.90;35.80
23377;DHT22;14353;46.070;13.222;2022-07-23T07:05:51;34.90;35.80
23377;DHT22;14353;46.070;13.222;2022-07-23T07:08:18;34.90;35.80
23377;DHT22;14353;46.070;13.222;2022-07-23T07:10:44;34.90;35.70
23377;DHT22;14353;46.070;13.222;2022-07-23T07:13:10;34.90;35.70
23377;DHT22;14353;46.070;13.222;2022-07-23T07:15:36;34.90;35.70
23377;DHT22;14353;46.070;13.222;2022-07-23T07:18:02;34.90;35.70
23377;DHT22;14353;46.070;13.222;2022-07-23T07:20:28;34.90;35.70
23377;DHT22;14353;46.070;13.222;2022-07-23T07:22:54;34.90;35.70
23377;DHT22;14353;46.070;13.222;2022-07-23T07:25:20;35.00;35.70
23377;DHT22;14353;46.070;13.222;2022-07-23T07:27:46;35.00;35.70
23377;DHT22;14353;46.070;13.222;2022-07-23T07:30:12;35.00;35.70
23377;DHT22;14353;46.070;13.222;2022-07-23T07:32:39;35.00;36.30
23377;DHT22;14353;46.070;13.222;2022-07-23T07:35:05;35.00;35.60
23377;DHT22;14353;46.070;13.222;2022-07-23T07:37:32;35.00;35.70
23377;DHT22;14353;46.070;13.222;2022-07-23T07:39:58;35.00;35.70
23377;DHT22;14353;46.070;13.222;2022-07-23T07:42:24;35.00;35.70
23377;DHT22;14353;46.070;13.222;2022-07-23T07:44:50;35.00;35.60
23377;DHT22;14353;46.070;13.222;2022-07-23T07:47:16;35.10;35.70
23377;DHT22;14353;46.070;13.222;2022-07-23T07:49:42;35.10;35.60
23377;DHT22;14353;46.070;13.222;2022-07-23T07:52:09;35.10;35.60
23377;DHT22;14353;46.070;13.222;2022-07-23T07:54:35;35.10;35.70
23377;DHT22;14353;46.070;13.222;2022-07-23T07:57:01;35.10;35.60
23377;DHT22;14353;46.070;13.222;2022-07-23T07:59:27;35.10;35.60
23377;DHT22;14353;46.070;13.222;2022-07-23T08:01:52;35.10;35.60
23377;DHT22;14353;46.070;13.222;2022-07-23T08:04:19;35.10;35.50
23377;DHT22;14353;46.070;13.222;2022-07-23T08:06:44;35.10;35.60
23377;DHT22;14353;46.070;13.222;2022-07-23T08:09:10;35.10;35.50
23377;DHT22;14353;46.070;13.222;2022-07-23T08:11:36;35.20;35.60
23377;DHT22;14353;46.070;13.222;2022-07-23T08:14:02;35.20;35.60
23377;DHT22;14353;46.070;13.222;2022-07-23T08:16:28;35.20;35.60
23377;DHT22;14353;46.070;13.222;2022-07-23T08:18:54;35.20;35.50
23377;DHT22;14353;46.070;13.222;2022-07-23T08:21:20;35.20;36.20
23377;DHT22;14353;46.070;13.222;2022-07-23T08:23:48;35.20;35.50
23377;DHT22;14353;46.070;13.222;2022-07-23T08:26:14;35.20;35.40
23377;DHT22;14353;46.070;13.222;2022-07-23T08:28:40;35.20;35.40
23377;DHT22;14353;46.070;13.222;2022-07-23T08:31:06;35.20;35.40
23377;DHT22;14353;46.070;13.222;2022-07-23T08:33:32;35.30;35.50
23377;DHT22;14353;46.070;13.222;2022-07-23T08:35:58;35.30;35.40
23377;DHT22;14353;46.070;13.222;2022-07-23T08:38:25;35.30;35.40
23377;DHT22;14353;46.070;13.222;2022-07-23T08:40:55;35.30;35.40
23377;DHT22;14353;46.070;13.222;2022-07-23T08:43:32;35.30;35.30
23377;DHT22;14353;46.070;13.222;2022-07-23T08:46:00;35.30;35.30
23377;DHT22;14353;46.070;13.222;2022-07-23T08:48:29;35.30;35.30
23377;DHT22;14353;46.070;13.222;2022-07-23T08:50:57;35.30;35.30
23377;DHT22;14353;46.070;13.222;2022-07-23T08:53:28;35.30;35.30
23377;DHT22;14353;46.070;13.222;2022-07-23T08:55:55;35.30;35.20
23377;DHT22;14353;46.070;13.222;2022-07-23T08:58:24;35.30;35.30
23377;DHT22;14353;46.070;13.222;2022-07-23T09:00:51;35.30;35.20
23377;DHT22;14353;46.070;13.222;2022-07-23T09:03:22;35.30;35.20
23377;DHT22;14353;46.070;13.222;2022-07-23T09:05:53;35.30;35.20
23377;DHT22;14353;46.070;13.222;2022-07-23T09:08:38;35.30;35.10
23377;DHT22;14353;46.070;13.222;2022-07-23T09:11:09;35.30;35.20
23377;DHT22;14353;46.070;13.222;2022-07-23T09:16:14;35.30;35.20
23377;DHT22;14353;46.070;13.222;2022-07-23T09:23:43;35.30;35.20
23377;DHT22;14353;46.070;13.222;2022-07-23T09:29:19;35.30;35.90
23377;DHT22;14353;46.070;13.222;2022-07-23T09:34:18;35.40;35.10
23377;DHT22;14353;46.070;13.222;2022-07-23T09:36:46;35.40;35.10
23377;DHT22;14353;46.070;13.222;2022-07-23T09:39:13;35.40;35.10
23377;DHT22;14353;46.070;13.222;2022-07-23T09:41:42;35.40;35.10
23377;DHT22;14353;46.070;13.222;2022-07-23T09:44:11;35.40;35.00
23377;DHT22;14353;46.070;13.222;2022-07-23T09:46:40;35.40;35.00
23377;DHT22;14353;46.070;13.222;2022-07-23T09:49:15;35.40;35.00
23377;DHT22;14353;46.070;13.222;2022-07-23T09:56:59;35.50;34.90
23377;DHT22;14353;46.070;13.222;2022-07-23T09:59:29;35.50;34.90
23377;DHT22;14353;46.070;13.222;2022-07-23T10:01:56;35.50;34.90
23377;DHT22;14353;46.070;13.222;2022-07-23T10:04:25;35.40;34.90
23377;DHT22;14353;46.070;13.222;2022-07-23T10:06:53;35.50;34.90
23377;DHT22;14353;46.070;13.222;2022-07-23T10:09:25;35.50;34.80
23377;DHT22;14353;46.070;13.222;2022-07-23T10:11:52;35.50;34.80
23377;DHT22;14353;46.070;13.222;2022-07-23T10:14:20;35.50;34.80
23377;DHT22;14353;46.070;13.222;2022-07-23T10:16:47;35.50;34.70
23377;DHT22;14353;46.070;13.222;2022-07-23T10:19:13;35.50;34.70
23377;DHT22;14353;46.070;13.222;2022-07-23T10:21:46;35.50;34.70
23377;DHT22;14353;46.070;13.222;2022-07-23T10:35:18;35.60;34.70
23377;DHT22;14353;46.070;13.222;2022-07-23T10:37:51;35.60;34.70
23377;DHT22;14353;46.070;13.222;2022-07-23T10:40:19;35.60;34.60
23377;DHT22;14353;46.070;13.222;2022-07-23T10:42:48;35.60;34.60
23377;DHT22;14353;46.070;13.222;2022-07-23T10:45:34;35.60;34.60
23377;DHT22;14353;46.070;13.222;2022-07-23T10:51:05;35.60;34.60
23377;DHT22;14353;46.070;13.222;2022-07-23T10:59:05;35.70;34.50
23377;DHT22;14353;46.070;13.222;2022-07-23T11:01:32;35.70;34.40
23377;DHT22;14353;46.070;13.222;2022-07-23T11:03:59;35.70;34.30
23377;DHT22;14353;46.070;13.222;2022-07-23T11:09:40;35.80;34.40
23377;DHT22;14353;46.070;13.222;2022-07-23T11:17:37;35.80;34.10
23377;DHT22;14353;46.070;13.222;2022-07-23T11:25:11;35.80;34.00
23377;DHT22;14353;46.070;13.222;2022-07-23T11:27:38;35.90;34.00
23377;DHT22;14353;46.070;13.222;2022-07-23T11:30:06;35.90;34.00
23377;DHT22;14353;46.070;13.222;2022-07-23T11:32:35;35.90;33.90
23377;DHT22;14353;46.070;13.222;2022-07-23T11:35:27;35.90;33.90
23377;DHT22;14353;46.070;13.222;2022-07-23T11:37:56;35.90;33.90
23377;DHT22;14353;46.070;13.222;2022-07-23T11:40:28;35.90;33.90
23377;DHT22;14353;46.070;13.222;2022-07-23T11:43:07;35.90;33.80
23377;DHT22;14353;46.070;13.222;2022-07-23T11:45:42;35.90;33.70
23377;DHT22;14353;46.070;13.222;2022-07-23T11:48:21;36.00;33.70
23377;DHT22;14353;46.070;13.222;2022-07-23T11:50:48;36.00;33.70
23377;DHT22;14353;46.070;13.222;2022-07-23T11:53:28;36.00;33.50
23377;DHT22;14353;46.070;13.222;2022-07-23T11:55:56;36.00;33.50
23377;DHT22;14353;46.070;13.222;2022-07-23T11:58:27;36.00;33.50
23377;DHT22;14353;46.070;13.222;2022-07-23T12:00:55;36.10;33.50
23377;DHT22;14353;46.070;13.222;2022-07-23T12:03:21;36.10;33.40
23377;DHT22;14353;46.070;13.222;2022-07-23T12:05:47;36.10;33.40
23377;DHT22;14353;46.070;13.222;2022-07-23T12:08:14;36.10;33.40
23377;DHT22;14353;46.070;13.222;2022-07-23T12:10:43;36.10;33.30
23377;DHT22;14353;46.070;13.222;2022-07-23T12:13:18;36.10;33.30
23377;DHT22;14353;46.070;13.222;2022-07-23T12:15:57;36.20;33.30
23377;DHT22;14353;46.070;13.222;2022-07-23T12:18:25;36.20;33.20
23377;DHT22;14353;46.070;13.222;2022-07-23T12:20:53;36.20;33.20
23377;DHT22;14353;46.070;13.222;2022-07-23T12:23:22;36.20;33.10
23377;DHT22;14353;46.070;13.222;2022-07-23T12:25:50;36.20;33.00
23377;DHT22;14353;46.070;13.222;2022-07-23T12:28:27;36.20;33.00
23377;DHT22;14353;46.070;13.222;2022-07-23T12:30:54;36.20;32.90
23377;DHT22;14353;46.070;13.222;2022-07-23T12:33:38;36.20;32.80
23377;DHT22;14353;46.070;13.222;2022-07-23T12:36:06;36.20;32.80
23377;DHT22;14353;46.070;13.222;2022-07-23T12:38:46;36.30;32.80
23377;DHT22;14353;46.070;13.222;2022-07-23T12:41:12;36.30;32.70
23377;DHT22;14353;46.070;13.222;2022-07-23T12:43:43;36.30;32.70
23377;DHT22;14353;46.070;13.222;2022-07-23T12:46:22;36.30;32.70
23377;DHT22;14353;46.070;13.222;2022-07-23T12:51:23;36.40;32.60
23377;DHT22;14353;46.070;13.222;2022-07-23T12:53:51;36.40;32.60
23377;DHT22;14353;46.070;13.222;2022-07-23T12:56:29;36.40;32.50
23377;DHT22;14353;46.070;13.222;2022-07-23T13:01:30;36.40;32.50
23377;DHT22;14353;46.070;13.222;2022-07-23T13:04:01;36.40;32.50
23377;DHT22;14353;46.070;13.222;2022-07-23T13:06:31;36.40;32.50
23377;DHT22;14353;46.070;13.222;2022-07-23T13:08:58;36.40;32.30
23377;DHT22;14353;46.070;13.222;2022-07-23T13:11:24;36.40;32.30
23377;DHT22;14353;46.070;13.222;2022-07-23T13:13:50;36.50;32.40
23377;DHT22;14353;46.070;13.222;2022-07-23T13:16:17;36.50;32.40
23377;DHT22;14353;46.070;13.222;2022-07-23T13:18:43;36.50;32.30
23377;DHT22;14353;46.070;13.222;2022-07-23T13:21:09;36.50;32.90
23377;DHT22;14353;46.070;13.222;2022-07-23T13:23:35;36.50;32.20
23377;DHT22;14353;46.070;13.222;2022-07-23T13:26:01;36.50;32.20
23377;DHT22;14353;46.070;13.222;2022-07-23T13:28:27;36.60;32.20
23377;DHT22;14353;46.070;13.222;2022-07-23T13:30:53;36.60;32.20
23377;DHT22;14353;46.070;13.222;2022-07-23T13:33:21;36.60;32.10
23377;DHT22;14353;46.070;13.222;2022-07-23T13:35:48;36.60;32.10
23377;DHT22;14353;46.070;13.222;2022-07-23T13:38:17;36.70;32.10
23377;DHT22;14353;46.070;13.222;2022-07-23T13:40:45;36.70;32.00
23377;DHT22;14353;46.070;13.222;2022-07-23T13:43:15;36.70;32.00
23377;DHT22;14353;46.070;13.222;2022-07-23T13:45:41;36.70;32.00
23377;DHT22;14353;46.070;13.222;2022-07-23T13:48:12;36.70;32.00
23377;DHT22;14353;46.070;13.222;2022-07-23T13:50:39;36.80;32.00
23377;DHT22;14353;46.070;13.222;2022-07-23T13:53:11;36.80;31.90
23377;DHT22;14353;46.070;13.222;2022-07-23T13:55:39;36.80;31.90
23377;DHT22;14353;46.070;13.222;2022-07-23T13:58:06;36.70;31.90
23377;DHT22;14353;46.070;13.222;2022-07-23T14:00:34;36.80;31.90
23377;DHT22;14353;46.070;13.222;2022-07-23T14:03:03;36.80;31.80
23377;DHT22;14353;46.070;13.222;2022-07-23T14:05:30;36.80;32.50
23377;DHT22;14353;46.070;13.222;2022-07-23T14:07:56;36.90;31.80
23377;DHT22;14353;46.070;13.222;2022-07-23T14:10:23;36.90;31.80
23377;DHT22;14353;46.070;13.222;2022-07-23T14:12:51;36.90;31.80
23377;DHT22;14353;46.070;13.222;2022-07-23T14:15:18;36.90;31.80
23377;DHT22;14353;46.070;13.222;2022-07-23T14:17:45;36.90;31.80
23377;DHT22;14353;46.070;13.222;2022-07-23T14:20:13;36.90;31.80
23377;DHT22;14353;46.070;13.222;2022-07-23T14:22:39;36.90;31.70
23377;DHT22;14353;46.070;13.222;2022-07-23T14:25:06;36.90;31.70
23377;DHT22;14353;46.070;13.222;2022-07-23T14:27:33;36.90;31.60
23377;DHT22;14353;46.070;13.222;2022-07-23T14:29:59;36.90;31.60
23377;DHT22;14353;46.070;13.222;2022-07-23T14:32:26;36.90;31.60
23377;DHT22;14353;46.070;13.222;2022-07-23T14:34:52;37.00;31.60
23377;DHT22;14353;46.070;13.222;2022-07-23T14:37:18;37.00;31.60
23377;DHT22;14353;46.070;13.222;2022-07-23T14:39:45;37.00;31.60
23377;DHT22;14353;46.070;13.222;2022-07-23T14:42:11;37.00;31.60
23377;DHT22;14353;46.070;13.222;2022-07-23T14:44:37;37.00;31.60
23377;DHT22;14353;46.070;13.222;2022-07-23T14:47:04;37.00;31.50
23377;DHT22;14353;46.070;13.222;2022-07-23T14:49:31;37.00;31.60
23377;DHT22;14353;46.070;13.222;2022-07-23T14:51:57;37.00;31.60
23377;DHT22;14353;46.070;13.222;2022-07-23T14:54:24;37.00;31.60
23377;DHT22;14353;46.070;13.222;2022-07-23T14:56:52;37.00;31.50
23377;DHT22;14353;46.070;13.222;2022-07-23T14:59:18;37.10;31.60
23377;DHT22;14353;46.070;13.222;2022-07-23T15:01:45;37.00;31.60
23377;DHT22;14353;46.070;13.222;2022-07-23T15:04:10;37.10;31.60
23377;DHT22;14353;46.070;13.222;2022-07-23T15:06:36;37.10;31.60
23377;DHT22;14353;46.070;13.222;2022-07-23T15:09:04;37.10;31.60
23377;DHT22;14353;46.070;13.222;2022-07-23T15:11:30;37.10;31.60
23377;DHT22;14353;46.070;13.222;2022-07-23T15:14:00;37.10;31.50
23377;DHT22;14353;46.070;13.222;2022-07-23T15:16:27;37.10;31.50
23377;DHT22;14353;46.070;13.222;2022-07-23T15:18:53;37.10;31.50
23377;DHT22;14353;46.070;13.222;2022-07-23T15:21:19;37.10;31.50
23377;DHT22;14353;46.070;13.222;2022-07-23T15:23:45;37.10;31.50
23377;DHT22;14353;46.070;13.222;2022-07-23T15:26:10;37.10;31.60
23377;DHT22;14353;46.070;13.222;2022-07-23T15:28:39;37.10;31.60
23377;DHT22;14353;46.070;13.222;2022-07-23T15:31:05;37.10;31.60
23377;DHT22;14353;46.070;13.222;2022-07-23T15:33:31;37.10;31.60
23377;DHT22;14353;46.070;13.222;2022-07-23T15:35:57;37.10;31.60
23377;DHT22;14353;46.070;13.222;2022-07-23T15:38:25;37.10;31.70
23377;DHT22;14353;46.070;13.222;2022-07-23T15:40:55;37.00;31.70
23377;DHT22;14353;46.070;13.222;2022-07-23T15:43:22;37.00;31.80
23377;DHT22;14353;46.070;13.222;2022-07-23T15:45:49;37.00;31.90
23377;DHT22;14353;46.070;13.222;2022-07-23T15:48:15;37.00;31.90
23377;DHT22;14353;46.070;13.222;2022-07-23T15:50:41;36.90;31.80
23377;DHT22;14353;46.070;13.222;2022-07-23T15:53:07;36.90;32.00
23377;DHT22;14353;46.070;13.222;2022-07-23T15:55:33;36.90;32.00
23377;DHT22;14353;46.070;13.222;2022-07-23T15:58:01;36.90;32.10
23377;DHT22;14353;46.070;13.222;2022-07-23T16:00:26;36.80;32.10
23377;DHT22;14353;46.070;13.222;2022-07-23T16:02:52;36.80;32.20
23377;DHT22;14353;46.070;13.222;2022-07-23T16:05:18;36.80;32.20
23377;DHT22;14353;46.070;13.222;2022-07-23T16:07:44;36.70;32.10
23377;DHT22;14353;46.070;13.222;2022-07-23T16:10:10;36.70;32.20
23377;DHT22;14353;46.070;13.222;2022-07-23T16:12:36;36.70;32.30